Latest Weather Observations for Walpeup

IDV60801

Issued at 4:12 pm EDT Tuesday 10 December 2019 (issued every 10 minutes, with the page automatically refreshed every 10 minutes)

About weather observations | Map of weather stations | Latest weather observations for VIC | Other Formats
Station Details ID: 076064 Name: WALPEUP RESEARCH Lat: -35.12 Lon: 142.00 Height: 105.0 m
Data from the previous 72 hours. | See also: Recent months at Walpeup
Date/Time
EDT
Temp
°C
App
Temp
°C
Dew
Point
°C
Rel
Hum
%
Delta-T
°C
Wind Press
QNH
hPa
Press
MSL
hPa
Rain since
9am
mm
Dir  Spd
km/h
Gust
km/h
Spd
kts
Gust
kts
10/04:00pm 29.6 24.6 3.6 19 13.2 SSW 19 33 10 18 - - 0.0
10/03:30pm 30.1 25.3 4.7 20 13.2 SSW 19 28 10 15 - - 0.0
10/03:00pm 28.8 24.2 3.6 20 12.8 SSW 17 32 9 17 - - 0.0
10/02:30pm 27.8 23.4 4.8 23 11.8 SSW 17 30 9 16 - - 0.0
10/02:00pm 27.2 23.1 6.0 26 11.1 SSW 17 32 9 17 - - 0.0
10/01:30pm 26.3 21.7 5.8 27 10.6 SSW 19 28 10 15 - - 0.0
10/01:00pm 26.1 21.3 5.7 27 10.5 SSW 20 32 11 17 - - 0.0
10/12:30pm 24.9 20.4 6.1 30 9.7 SW 19 28 10 15 - - 0.0
10/12:00pm 23.7 19.1 6.5 33 8.9 SSW 20 28 11 15 - - 0.0
10/11:30am 22.6 19.0 8.3 40 7.6 SSW 17 24 9 13 - - 0.0
10/11:00am 21.6 17.8 9.2 45 6.6 SW 19 28 10 15 - - 0.0
10/10:30am 19.7 15.7 9.0 50 5.7 SSW 20 30 11 16 - - 0.0
10/10:00am 19.5 15.9 9.7 53 5.2 SSW 19 24 10 13 - - 0.0
10/09:30am 18.6 15.2 10.4 59 4.4 SSW 19 26 10 14 - - 0.0
10/09:00am 16.8 13.1 10.2 65 3.5 SSW 20 28 11 15 - - 0.0
10/08:30am 15.8 11.3 9.9 68 3.1 SSW 24 32 13 17 - - 0.0
10/08:00am 15.3 10.8 10.1 71 2.7 SSW 24 32 13 17 - - 0.0
10/07:30am 15.1 11.1 10.3 73 2.5 SSW 22 32 12 17 - - 0.0
10/07:00am 14.6 11.6 10.6 77 2.1 SW 17 26 9 14 - - 0.0
10/06:30am 14.4 11.5 11.0 80 1.8 SW 17 30 9 16 - - 0.0
10/06:00am 14.1 11.2 10.9 81 1.7 SW 17 24 9 13 - - 0.0
10/05:30am 14.3 11.4 10.9 80 1.8 SW 17 26 9 14 - - 0.0
10/05:00am 14.7 11.3 11.3 80 1.8 SW 20 30 11 16 - - 0.0
10/04:30am 15.2 11.8 11.4 78 2.0 SW 20 28 11 15 - - 0.0
10/04:00am 15.9 12.5 11.3 74 2.5 SW 20 26 11 14 - - 0.0
10/03:30am 16.9 14.0 11.0 68 3.2 SW 17 28 9 15 - - 0.0
10/03:00am 17.7 13.9 11.0 65 3.6 SW 22 28 12 15 - - 0.0
10/02:30am 18.3 14.7 10.7 61 4.1 SW 20 28 11 15 - - 0.0
10/02:00am 19.0 16.2 10.0 56 4.8 WSW 15 24 8 13 - - 0.0
10/01:30am 19.8 17.1 9.1 50 5.7 WSW 13 20 7 11 - - 0.0
10/01:00am 20.6 17.1 8.9 47 6.2 SW 17 24 9 13 - - 0.0
10/12:30am 21.0 19.3 8.3 44 6.7 SE 7 13 4 7 - - 0.0
10/12:00am 21.1 18.3 8.7 45 6.6 SSW 13 17 7 9 - - 0.0
 
Date/Time
EDT
Temp
°C
App
Temp
°C
Dew
Point
°C
Rel
Hum
%
Delta-T
°C
Wind Press
QNH
hPa
Press
MSL
hPa
Rain since
9am
mm
Dir  Spd
km/h
Gust
km/h
Spd
kts
Gust
kts
09/11:30pm 21.4 18.0 9.3 46 6.5 S 17 24 9 13 - - 0.0
09/11:00pm 21.5 17.9 9.7 47 6.4 SSW 19 24 10 13 - - 0.0
09/10:30pm 22.0 19.1 11.1 50 6.1 SSW 17 26 9 14 - - 0.0
09/10:00pm 22.8 18.5 10.9 47 6.6 SW 24 33 13 18 - - 0.0
09/09:30pm 23.5 18.4 10.6 44 7.2 SW 28 41 15 22 - - 0.0
09/09:00pm 24.2 18.8 10.8 43 7.5 SW 30 41 16 22 - - 0.0
09/08:30pm 25.4 19.6 10.8 40 8.2 SW 32 43 17 23 - - 0.0
09/08:00pm 27.5 21.5 10.7 35 9.5 SW 33 48 18 26 - - 0.0
09/07:30pm 30.6 24.7 11.1 30 11.3 SW 33 44 18 24 - - 0.0
09/07:00pm 32.2 25.7 9.1 24 13.1 SW 33 43 18 23 - - 0.0
09/06:30pm 33.4 26.9 6.6 19 14.6 SW 30 41 16 22 - - 0.0
09/06:00pm 34.1 27.4 5.6 17 15.4 SW 30 41 16 22 - - 0.0
09/05:30pm 34.7 28.1 6.1 17 15.6 WSW 30 43 16 23 - - 0.0
09/05:00pm 35.4 28.4 1.7 12 17.2 WSW 28 39 15 21 - - 0.0
09/04:30pm 37.7 30.3 -0.6 9 19.1 WSW 28 43 15 23 - - 0.0
09/04:00pm 38.9 30.8 -3.1 7 20.3 W 30 46 16 25 - - 0.0
09/03:30pm 38.9 30.2 -5.1 6 20.7 W 32 44 17 24 - - 0.0
09/03:00pm 39.8 31.4 -2.4 7 20.8 W 32 46 17 25 - - 0.0
09/02:30pm 38.9 30.2 -5.1 6 20.7 WSW 32 44 17 24 - - 0.0
09/02:09pm 40.8 32.5 -9.1 4 22.4 W 28 48 15 26 - - 0.0
09/02:00pm 41.3 33.4 -8.7 4 22.6 WNW 26 39 14 21 - - 0.0
09/01:30pm 40.1 31.8 -9.5 4 22.0 NW 28 41 15 22 - - 0.0
09/01:00pm 39.5 31.7 -7.1 5 21.3 NNW 26 39 14 21 - - 0.0
09/12:30pm 38.8 31.4 -7.6 5 21.0 NNW 24 37 13 20 - - 0.0
09/12:00pm 37.9 30.4 -8.2 5 20.5 NNW 24 41 13 22 - - 0.0
09/11:30am 37.2 28.9 -8.7 5 20.1 NNW 28 39 15 21 - - 0.0
09/11:00am 36.2 28.1 -7.0 6 19.3 N 28 37 15 20 - - 0.0
09/10:30am 34.7 27.4 -6.1 7 18.3 N 24 32 13 17 - - 0.0
09/10:00am 32.8 25.6 -5.7 8 17.1 N 24 33 13 18 - - 0.0
09/09:30am 31.2 23.6 -5.4 9 16.1 NNE 26 35 14 19 - - 0.0
09/09:00am 29.8 23.0 -5.1 10 15.3 NNE 22 32 12 17 - - 0.0
09/08:30am 26.1 20.3 -4.4 13 13.1 NNE 17 24 9 13 - - 0.0
09/08:00am 24.5 19.1 -4.7 14 12.3 NNE 15 20 8 11 - - 0.0
09/07:30am 23.6 17.8 -4.5 15 11.8 NNE 17 24 9 13 - - 0.0
09/07:00am 22.3 16.2 -3.9 17 11.0 NE 19 22 10 12 - - 0.0
09/06:30am 21.7 15.6 -3.6 18 10.6 NE 19 24 10 13 - - 0.0
09/06:00am 21.6 15.9 -3.7 18 10.6 NE 17 20 9 11 - - 0.0
09/05:30am 22.2 16.5 -4.0 17 11.0 NE 17 24 9 13 - - 0.0
09/05:00am 22.4 16.8 -3.1 18 10.9 NE 17 22 9 12 - - 0.0
09/04:30am 22.3 17.1 -3.1 18 10.8 NE 15 19 8 10 - - 0.0
09/04:00am 22.5 16.9 -3.0 18 10.9 NE 17 22 9 12 - - 0.0
09/03:30am 22.8 17.5 -3.5 17 11.2 NE 15 20 8 11 - - 0.0
09/03:00am 23.0 17.6 -4.1 16 11.4 NE 15 19 8 10 - - 0.0
09/02:30am 23.3 17.9 -4.8 15 11.7 NE 15 20 8 11 - - 0.0
09/02:00am 23.1 18.1 -4.1 16 11.4 ENE 13 17 7 9 - - 0.0
09/01:30am 23.7 18.8 -3.6 16 11.7 ENE 13 19 7 10 - - 0.0
09/01:00am 23.7 18.8 -3.6 16 11.7 ENE 13 17 7 9 - - 0.0
09/12:30am 24.4 19.7 -4.8 14 12.3 ENE 11 17 6 9 - - 0.0
09/12:00am 25.3 20.6 -5.1 13 12.8 ENE 11 17 6 9 - - 0.0
 
Date/Time
EDT
Temp
°C
App
Temp
°C
Dew
Point
°C
Rel
Hum
%
Delta-T
°C
Wind Press
QNH
hPa
Press
MSL
hPa
Rain since
9am
mm
Dir  Spd
km/h
Gust
km/h
Spd
kts
Gust
kts
08/11:30pm 25.9 21.1 -5.6 12 13.2 ENE 11 15 6 8 - - 0.0
08/11:00pm 26.6 22.2 -6.2 11 13.7 ENE 9 15 5 8 - - 0.0
08/10:30pm 26.9 22.6 -4.9 12 13.6 ENE 9 13 5 7 - - 0.0
08/10:00pm 27.4 23.3 -6.9 10 14.3 ENE 7 11 4 6 - - 0.0
08/09:30pm 27.9 23.3 -7.9 9 14.7 ENE 9 9 5 5 - - 0.0
08/09:00pm 28.9 24.2 -8.6 8 15.3 NE 9 11 5 6 - - 0.0
08/08:30pm 30.5 26.5 -7.4 8 16.1 NE 6 7 3 4 - - 0.0
08/08:00pm 32.7 28.7 -7.6 7 17.3 NE 6 7 3 4 - - 0.0
08/07:30pm 33.9 29.6 -8.7 6 18.2 ENE 7 11 4 6 - - 0.0
08/07:00pm 34.6 30.0 -8.2 6 18.5 NE 9 13 5 7 - - 0.0
08/06:30pm 34.6 30.0 -8.2 6 18.5 NE 9 17 5 9 - - 0.0
08/06:00pm 35.2 30.6 -7.7 6 18.8 NE 9 15 5 8 - - 0.0
08/05:30pm 34.9 30.5 -6.0 7 18.4 NE 9 15 5 8 - - 0.0
08/05:00pm 34.7 30.8 -6.1 7 18.3 N 6 13 3 7 - - 0.0
08/04:30pm 35.3 30.9 -5.7 7 18.6 N 9 22 5 12 - - 0.0
08/04:00pm 34.4 30.1 -4.6 8 17.9 NNE 9 17 5 9 - - 0.0
08/03:30pm 33.9 29.4 -3.4 9 17.4 NNE 11 22 6 12 - - 0.0
08/03:00pm 33.5 29.3 -3.7 9 17.2 ENE 9 17 5 9 - - 0.0
08/02:30pm 33.1 28.1 -4.0 9 17.0 ENE 13 24 7 13 - - 0.0
08/02:00pm 32.4 27.5 -3.1 10 16.4 N 13 22 7 12 - - 0.0
08/01:30pm 31.5 27.6 -1.3 12 15.5 NE 9 20 5 11 - - 0.0
08/01:00pm 30.6 26.6 -2.0 12 15.2 NNE 9 20 5 11 - - 0.0
08/12:30pm 29.9 25.5 -2.6 12 14.9 NNE 11 24 6 13 - - 0.0
08/12:00pm 29.3 24.7 -0.9 14 14.2 N 13 22 7 12 - - 0.0
08/11:30am 28.3 23.9 0.1 16 13.4 ENE 13 33 7 18 - - 0.0
08/11:00am 27.0 22.9 4.1 23 11.6 NE 15 22 8 12 - - 0.0
08/10:30am 25.4 21.0 4.5 26 10.5 ENE 17 26 9 14 - - 0.0
08/10:00am 24.0 19.7 5.4 30 9.4 ENE 17 26 9 14 - - 0.0
08/09:30am 22.7 18.1 5.6 33 8.6 E 19 28 10 15 - - 0.0
08/09:00am 20.4 15.8 5.6 38 7.4 ENE 19 30 10 16 - - 0.0
08/08:30am 19.6 15.5 6.4 42 6.6 E 17 28 9 15 - - 0.0
08/08:00am 17.3 13.4 7.1 51 5.1 E 17 26 9 14 - - 0.0
08/07:30am 15.2 11.5 6.5 56 4.2 ESE 15 20 8 11 - - 0.0
08/07:00am 14.7 11.0 6.3 57 4.1 ESE 15 20 8 11 - - 0.0
08/06:30am 14.2 10.8 6.1 58 3.9 ESE 13 19 7 10 - - 0.0
08/06:00am 14.3 10.9 5.9 57 4.0 ESE 13 19 7 10 - - 0.0
08/05:30am 14.2 10.4 5.8 57 4.0 ESE 15 20 8 11 - - 0.0
08/05:00am 14.2 10.3 5.3 55 4.2 ESE 15 20 8 11 - - 0.0
08/04:30am 15.0 11.4 5.2 52 4.6 SE 13 19 7 10 - - 0.0
08/04:00am 15.4 11.8 4.8 49 5.0 SE 13 19 7 10 - - 0.0
08/03:30am 15.8 12.4 4.2 46 5.4 ESE 11 17 6 9 - - 0.0
08/03:00am 16.0 12.6 3.8 44 5.7 SE 11 17 6 9 - - 0.0
08/02:30am 17.0 13.0 3.0 39 6.4 SE 13 20 7 11 - - 0.0
08/02:00am 17.7 13.8 1.2 33 7.4 SE 11 15 6 8 - - 0.0
08/01:30am 18.8 14.5 0.9 30 8.0 SE 13 20 7 11 - - 0.0
08/01:00am 19.3 15.1 -1.2 25 8.8 SSE 11 17 6 9 - - 0.0
08/12:30am 20.5 15.8 -1.9 22 9.6 SSE 13 17 7 9 - - 0.0
08/12:00am 21.5 16.7 -2.4 20 10.2 SSE 13 15 7 8 - - 0.0
 
Date/Time
EDT
Temp
°C
App
Temp
°C
Dew
Point
°C
Rel
Hum
%
Delta-T
°C
Wind Press
QNH
hPa
Press
MSL
hPa
Rain since
9am
mm
Dir  Spd
km/h
Gust
km/h
Spd
kts
Gust
kts
07/11:30pm 21.4 17.0 -2.5 20 10.2 SSE 11 13 6 7 - - 0.0
07/11:00pm 20.9 17.2 -2.9 20 10.1 SSE 7 9 4 5 - - 0.0
07/10:30pm 21.7 17.7 -2.2 20 10.3 SSE 9 9 5 5 - - 0.0
07/10:00pm 21.7 18.7 -2.2 20 10.3 SW 4 7 2 4 - - 0.0
07/09:30pm 22.1 18.7 -1.9 20 10.4 NNW 6 7 3 4 - - 0.0
07/09:00pm 23.7 20.4 -1.3 19 11.2 N 6 7 3 4 - - 0.0
07/08:30pm 24.6 21.3 -1.3 18 11.6 N 6 7 3 4 - - 0.0
07/08:00pm 26.0 22.6 -1.7 16 12.5 N 6 7 3 4 - - 0.0
07/07:30pm 27.7 25.0 -2.2 14 13.6 SSW 2 7 1 4 - - 0.0
07/07:00pm 28.4 25.4 -1.6 14 13.8 W 4 9 2 5 - - 0.0
07/06:30pm 29.0 26.5 -1.2 14 14.1 ESE 2 7 1 4 - - 0.0
07/06:00pm 29.4 25.1 -1.9 13 14.5 WSW 11 19 6 10 - - 0.0
07/05:30pm 29.3 25.3 -1.9 13 14.4 SW 9 17 5 9 - - 0.0
07/05:00pm 28.0 25.0 -2.0 14 13.7 SE 4 11 2 6 - - 0.0
07/04:30pm 28.1 23.8 -1.9 14 13.7 SW 11 19 6 10 - - 0.0

Other formats

Comma delimited format used in spreadsheet applications
http://www.bom.gov.au/fwo/IDV60801/IDV60801.95831.axf

JavaScript Object Notation format (JSON) in row-major order
http://www.bom.gov.au/fwo/IDV60801/IDV60801.95831.json

Data quality

Most of these data are generated automatically and are frequently updated. Quality checks on data are not normally performed. It is possible for incorrect values to appear. Refer to information at About Latest Weather Observations and please check the disclaimer before using these data.